Time;durP1;ratioP1;P1;durP2;ratioP2;P2;SDS_P1;SDS_P2;PMS_P1;PMS_P2;Temp;Humidity;BMP_temperature;BMP_pressure;BME280_temperature;BME280_humidity;BME280_pressure;Samples;Min_cycle;Max_cycle;Signal;HPM_P1;HPM_P2
2022/11/30 00:01:13;;;;;;;;;32.75;27.00;;;;;8.53;74.79;101800.94;4968273;27;45680;-64
2022/11/30 00:03:40;;;;;;;;;36.50;30.25;;;;;8.44;74.41;101785.88;5058755;28;45456;-62
2022/11/30 00:06:07;;;;;;;;;35.25;28.75;;;;;8.45;74.52;101787.66;4994236;27;46210;-63
2022/11/30 00:08:33;;;;;;;;;33.25;25.75;;;;;8.46;74.63;101796.38;4990443;27;45731;-62
2022/11/30 00:10:58;;;;;;;;;34.25;31.25;;;;;8.48;74.76;101795.56;5061427;27;45463;-62
2022/11/30 00:13:24;;;;;;;;;39.50;35.75;;;;;8.55;75.72;101791.41;4992422;27;45284;-62
2022/11/30 00:15:50;;;;;;;;;36.00;29.75;;;;;8.58;74.46;101785.38;4991128;27;46163;-63
2022/11/30 00:18:16;;;;;;;;;32.25;25.00;;;;;8.45;74.36;101776.34;4990785;27;45778;-67
2022/11/30 00:20:43;;;;;;;;;38.00;29.75;;;;;8.48;74.71;101782.53;4993935;27;45591;-62
2022/11/30 00:23:09;;;;;;;;;37.75;28.25;;;;;8.55;74.31;101780.09;4994638;27;45515;-62
2022/11/30 00:25:38;;;;;;;;;41.00;27.25;;;;;8.54;74.16;101780.91;4994998;27;46594;-63
2022/11/30 00:28:04;;;;;;;;;30.50;23.75;;;;;8.63;74.10;101791.59;4994067;27;45480;-64
2022/11/30 00:30:30;;;;;;;;;33.25;27.50;;;;;8.57;73.93;101765.34;4991623;27;46049;-63
2022/11/30 00:32:58;;;;;;;;;33.75;28.00;;;;;8.66;73.62;101781.22;4992552;27;45495;-63
2022/11/30 00:35:24;;;;;;;;;31.75;28.00;;;;;8.62;73.44;101774.19;4995671;27;45821;-63
2022/11/30 00:37:49;;;;;;;;;14.25;7.00;;;;;8.56;73.41;101769.66;4996942;27;45480;-63
2022/11/30 00:40:15;;;;;;;;;38.25;31.25;;;;;8.47;73.50;101780.75;4974098;28;45425;-63
2022/11/30 00:42:43;;;;;;;;;35.00;29.75;;;;;8.51;74.11;101773.00;4992599;27;45517;-64
2022/11/30 00:45:09;;;;;;;;;39.50;28.75;;;;;8.46;73.94;101773.75;4992836;27;46528;-63
2022/11/30 00:47:35;;;;;;;;;32.75;27.00;;;;;8.40;74.13;101776.22;4992426;27;45675;-64
2022/11/30 00:50:03;;;;;;;;;36.75;25.00;;;;;8.42;74.44;101773.63;4991461;27;45576;-62
2022/11/30 00:52:29;;;;;;;;;33.25;22.50;;;;;8.37;73.94;101756.94;4955411;28;45623;-64
2022/11/30 00:54:55;;;;;;;;;29.75;24.50;;;;;8.41;73.77;101761.44;4978130;27;46524;-63
2022/11/30 00:57:21;;;;;;;;;36.25;29.25;;;;;8.18;74.16;101750.31;4974343;27;45407;-63
2022/11/30 00:59:46;;;;;;;;;33.00;24.75;;;;;8.18;74.32;101765.97;4978094;28;45567;-61
2022/11/30 01:02:12;;;;;;;;;30.00;23.75;;;;;8.14;74.94;101769.31;4972556;27;45452;-62
2022/11/30 01:04:38;;;;;;;;;35.00;26.50;;;;;8.20;75.26;101770.38;4987811;27;46725;-61
2022/11/30 01:07:04;;;;;;;;;39.75;27.75;;;;;8.17;74.78;101759.88;4992403;27;45338;-62
2022/11/30 01:09:29;;;;;;;;;33.50;30.25;;;;;8.18;74.90;101750.31;4994777;27;45334;-63
2022/11/30 01:11:55;;;;;;;;;35.25;29.25;;;;;8.34;74.45;101769.91;4991354;27;45529;-64
2022/11/30 01:14:20;;;;;;;;;34.25;28.75;;;;;8.32;74.53;101768.97;4959840;27;46934;-63
2022/11/30 01:16:46;;;;;;;;;27.50;24.75;;;;;8.35;74.21;101775.19;4972006;27;45405;-61
2022/11/30 01:19:11;;;;;;;;;25.00;24.00;;;;;8.25;74.16;101767.91;4976111;27;45352;-64
2022/11/30 01:21:37;;;;;;;;;28.50;26.75;;;;;8.24;73.97;101769.66;4989098;27;45571;-62
2022/11/30 01:24:03;;;;;;;;;31.50;25.00;;;;;8.26;74.74;101781.03;4984018;27;45516;-62
2022/11/30 01:26:28;;;;;;;;;31.25;24.00;;;;;8.20;74.50;101772.13;4980289;27;45504;-63
2022/11/30 01:28:55;;;;;;;;;26.25;24.00;;;;;8.12;74.83;101769.31;4958561;28;45462;-63
2022/11/30 01:31:23;;;;;;;;;30.50;23.75;;;;;8.16;74.81;101768.56;4973639;27;45480;-62
2022/11/30 01:33:53;;;;;;;;;27.75;24.00;;;;;8.16;74.72;101752.91;4978195;27;45378;-63
2022/11/30 01:36:26;;;;;;;;;31.25;25.25;;;;;8.31;74.43;101762.88;4970658;27;45492;-63
2022/11/30 01:38:55;;;;;;;;;30.75;21.50;;;;;8.37;74.20;101764.75;4971621;27;45533;-62
2022/11/30 01:41:29;;;;;;;;;32.25;22.50;;;;;8.35;73.99;101762.13;4986301;27;45844;-62
2022/11/30 01:44:06;;;;;;;;;29.75;25.50;;;;;8.24;74.15;101771.38;4973522;27;46121;-63
2022/11/30 01:46:39;;;;;;;;;28.75;25.00;;;;;8.23;74.10;101775.72;4986607;27;45795;-61
2022/11/30 01:49:07;;;;;;;;;34.25;26.75;;;;;8.21;73.99;101772.19;4990773;27;45607;-61
2022/11/30 01:51:39;;;;;;;;;29.00;25.75;;;;;8.15;73.44;101771.13;4979898;28;45693;-61
2022/11/30 01:54:08;;;;;;;;;30.00;23.25;;;;;8.09;72.84;101766.59;4975457;28;46515;-62
2022/11/30 01:56:36;;;;;;;;;25.50;21.25;;;;;8.12;72.97;101782.34;4994581;27;45417;-62
2022/11/30 01:59:02;;;;;;;;;35.00;29.00;;;;;8.00;72.86;101758.53;4991880;27;45508;-63
2022/11/30 02:01:28;;;;;;;;;24.50;23.25;;;;;8.09;72.62;101777.03;4991381;27;45475;-64
2022/11/30 02:04:00;;;;;;;;;26.25;23.00;;;;;8.04;72.98;101774.31;4990297;27;45495;-62
2022/11/30 02:06:27;;;;;;;;;27.25;21.25;;;;;8.06;73.20;101759.56;5043736;27;45472;-63
2022/11/30 02:08:53;;;;;;;;;30.50;25.75;;;;;8.15;72.98;101781.56;4988404;28;45541;-62
2022/11/30 02:11:19;;;;;;;;;30.25;23.75;;;;;8.03;72.87;101756.88;4970296;28;45888;-62
2022/11/30 02:14:06;;;;;;;;;37.25;26.25;;;;;8.17;72.66;101774.66;4991608;27;46416;-66
2022/11/30 02:16:50;;;;;;;;;28.00;23.75;;;;;8.16;72.77;101776.38;4983917;27;45464;-62
2022/11/30 02:19:46;;;;;;;;;30.00;25.00;;;;;8.15;72.84;101776.34;4991336;27;45602;-65
2022/11/30 02:22:41;;;;;;;;;26.25;20.75;;;;;8.13;73.11;101776.28;4994076;27;45752;-62
2022/11/30 02:25:28;;;;;;;;;25.00;20.50;;;;;8.16;72.88;101779.00;4989801;27;45574;-63
2022/11/30 02:28:30;;;;;;;;;26.25;20.25;;;;;8.20;72.80;101780.81;4990790;27;45619;-63
2022/11/30 02:31:01;;;;;;;;;27.50;22.50;;;;;8.10;72.49;101764.88;4994808;27;45544;-63
2022/11/30 02:33:30;;;;;;;;;28.00;24.00;;;;;8.15;72.81;101778.94;4994988;27;45401;-66
2022/11/30 02:35:58;;;;;;;;;29.75;24.25;;;;;8.06;72.96;101772.59;4991430;27;45767;-63
2022/11/30 02:38:26;;;;;;;;;31.00;26.75;;;;;8.00;73.55;101776.78;4991011;27;45566;-65
2022/11/30 02:40:52;;;;;;;;;30.50;24.25;;;;;7.84;73.99;101771.09;4984337;27;45480;-66
2022/11/30 02:43:20;;;;;;;;;35.75;26.25;;;;;7.90;74.47;101778.25;4993545;27;45555;-64
2022/11/30 02:46:04;;;;;;;;;37.00;28.00;;;;;7.91;74.02;101786.94;4990772;27;46265;-64
2022/11/30 02:49:07;;;;;;;;;31.75;26.25;;;;;7.94;73.44;101782.69;4993936;27;45343;-63
2022/11/30 02:51:36;;;;;;;;;34.50;25.00;;;;;7.85;73.29;101766.75;5010503;27;45543;-61
2022/11/30 02:54:02;;;;;;;;;29.25;22.25;;;;;7.94;73.42;101782.69;4989392;27;45720;-61
2022/11/30 02:56:28;;;;;;;;;29.75;23.25;;;;;7.94;73.15;101773.97;4977299;27;45907;-61
2022/11/30 02:58:54;;;;;;;;;27.00;20.75;;;;;7.94;73.20;101780.06;4990729;27;45521;-62
2022/11/30 03:01:20;;;;;;;;;24.25;21.75;;;;;8.00;73.35;101776.78;4989817;27;45367;-62
2022/11/30 03:03:46;;;;;;;;;19.25;18.00;;;;;8.02;72.81;101789.03;4990309;27;45413;-63
2022/11/30 03:06:12;;;;;;;;;24.00;18.00;;;;;8.02;73.70;101782.91;4974108;27;46694;-62
2022/11/30 03:08:37;;;;;;;;;18.75;14.25;;;;;8.13;73.58;101791.06;4975033;28;45417;-62
2022/11/30 03:11:04;;;;;;;;;24.00;15.50;;;;;8.19;73.11;101780.81;4989710;27;45743;-63
2022/11/30 03:13:33;;;;;;;;;22.75;20.50;;;;;8.18;72.34;101779.91;4989993;27;45971;-65
2022/11/30 03:16:05;;;;;;;;;24.50;19.00;;;;;8.13;71.84;101785.84;4989972;27;45645;-62
2022/11/30 03:18:32;;;;;;;;;20.25;18.25;;;;;8.14;72.70;101787.59;4990367;28;45445;-62
2022/11/30 03:20:57;;;;;;;;;27.25;20.00;;;;;8.17;72.19;101785.97;4969341;28;45848;-63
2022/11/30 03:23:23;;;;;;;;;17.25;16.00;;;;;8.04;72.61;101779.53;4970525;27;45544;-64
2022/11/30 03:25:48;;;;;;;;;26.25;20.50;;;;;8.19;72.13;101794.72;4970420;27;45425;-64
2022/11/30 03:28:14;;;;;;;;;24.25;18.75;;;;;8.01;72.09;101771.59;4973858;27;45484;-63
2022/11/30 03:30:39;;;;;;;;;23.75;21.75;;;;;8.09;72.64;101795.28;4969352;28;45442;-63
2022/11/30 03:33:05;;;;;;;;;26.25;20.75;;;;;8.10;72.68;101799.69;4976267;27;45470;-63
2022/11/30 03:35:30;;;;;;;;;20.25;16.00;;;;;8.07;72.57;101779.59;4952597;28;47868;-66
2022/11/30 03:37:56;;;;;;;;;16.50;13.75;;;;;8.24;72.28;101803.56;4972300;27;45371;-62
2022/11/30 03:40:22;;;;;;;;;12.75;11.00;;;;;8.27;72.05;101797.56;4980224;27;45681;-62
2022/11/30 03:42:47;;;;;;;;;20.75;19.00;;;;;8.01;71.55;101770.72;4983215;27;45526;-64
2022/11/30 03:45:13;;;;;;;;;19.00;16.75;;;;;8.10;71.69;101811.84;4972867;27;45798;-62
2022/11/30 03:47:38;;;;;;;;;19.75;17.00;;;;;7.89;72.08;101794.72;4970772;27;45381;-62
2022/11/30 03:50:04;;;;;;;;;20.75;17.00;;;;;7.94;72.54;101819.22;4978931;27;45500;-66
2022/11/30 03:52:30;;;;;;;;;21.50;13.25;;;;;7.79;72.92;101823.97;4972916;27;45458;-63
2022/11/30 03:54:55;;;;;;;;;20.00;14.75;;;;;7.77;72.85;101821.31;4957610;28;45697;-62
2022/11/30 03:57:21;;;;;;;;;12.25;12.25;;;;;7.63;72.36;101799.13;4973336;28;45509;-63
2022/11/30 03:59:46;;;;;;;;;13.75;11.50;;;;;7.63;72.57;101817.38;4997377;27;45215;-64
2022/11/30 04:02:12;;;;;;;;;13.75;10.25;;;;;7.59;72.57;101826.84;4995882;27;46922;-63
2022/11/30 04:04:37;;;;;;;;;12.50;9.00;;;;;7.55;73.07;101834.53;4992866;27;46546;-65
2022/11/30 04:07:03;;;;;;;;;15.75;12.50;;;;;7.32;73.16;101819.00;4994916;27;45534;-63
2022/11/30 04:09:28;;;;;;;;;10.25;7.75;;;;;7.33;73.52;101838.13;4997028;27;45176;-63
2022/11/30 04:11:54;;;;;;;;;8.25;8.00;;;;;7.17;74.06;101819.41;4979616;28;45383;-61
2022/11/30 04:14:19;;;;;;;;;6.75;6.25;;;;;7.27;74.15;101832.75;4992785;27;45418;-63
2022/11/30 04:16:45;;;;;;;;;12.50;7.00;;;;;7.37;73.85;101832.19;4992702;27;45516;-62
2022/11/30 04:19:10;;;;;;;;;7.25;7.25;;;;;7.41;73.64;101834.06;4976130;28;45677;-63
2022/11/30 04:21:36;;;;;;;;;9.00;6.75;;;;;7.43;73.72;101837.63;4994192;27;45449;-63
2022/11/30 04:24:02;;;;;;;;;10.75;7.75;;;;;7.48;72.90;101827.34;4992499;27;46575;-62
2022/11/30 04:26:27;;;;;;;;;10.25;9.50;;;;;7.47;72.66;101836.88;4992332;27;46879;-61
2022/11/30 04:28:53;;;;;;;;;6.50;6.25;;;;;7.39;72.72;101836.63;4992908;27;45462;-64
2022/11/30 04:31:18;;;;;;;;;6.50;6.00;;;;;7.33;72.70;101845.94;4984738;27;45861;-66
2022/11/30 04:33:44;;;;;;;;;9.00;7.25;;;;;7.23;73.06;101850.84;4974628;28;47979;-65
2022/11/30 04:36:18;;;;;;;;;8.75;7.25;;;;;7.13;73.28;101840.09;4976606;27;45714;-64
2022/11/30 04:38:44;;;;;;;;;7.75;7.75;;;;;7.01;73.74;101853.59;4978306;28;45552;-62
2022/11/30 04:41:09;;;;;;;;;7.25;6.00;;;;;6.70;74.11;101810.84;4993110;27;45324;-64
2022/11/30 04:43:36;;;;;;;;;10.50;10.00;;;;;6.96;73.96;101850.81;4992451;27;45577;-62
2022/11/30 04:46:02;;;;;;;;;8.75;6.75;;;;;6.90;74.07;101857.53;4996713;27;45389;-63
2022/11/30 04:48:28;;;;;;;;;8.75;8.25;;;;;6.87;74.38;101845.28;4996024;27;45405;-63
2022/11/30 04:50:53;;;;;;;;;11.00;10.50;;;;;6.90;73.88;101849.72;4993848;27;45532;-62
2022/11/30 04:53:19;;;;;;;;;7.00;7.00;;;;;6.93;74.94;101863.75;4990656;27;46543;-62
2022/11/30 04:55:44;;;;;;;;;9.75;8.50;;;;;6.99;74.20;101858.72;4977736;27;45625;-63
2022/11/30 04:58:10;;;;;;;;;13.50;8.50;;;;;6.95;74.21;101858.56;4974441;27;45499;-61
2022/11/30 05:00:36;;;;;;;;;12.50;9.75;;;;;6.98;73.68;101866.50;5059901;27;45547;-62
2022/11/30 05:03:02;;;;;;;;;13.50;8.75;;;;;6.83;73.96;101847.72;4993394;27;46217;-62
2022/11/30 05:05:27;;;;;;;;;9.50;7.50;;;;;6.81;74.16;101858.13;4993218;27;45441;-62
2022/11/30 05:07:58;;;;;;;;;9.75;9.00;;;;;6.95;73.64;101871.59;4992442;27;45710;-62
2022/11/30 05:10:25;;;;;;;;;12.25;10.00;;;;;6.92;73.58;101864.56;4978538;28;45620;-62
2022/11/30 05:12:51;;;;;;;;;10.75;8.00;;;;;6.85;73.26;101874.72;4995696;27;45543;-62
2022/11/30 05:15:17;;;;;;;;;12.00;10.00;;;;;6.80;73.35;101865.00;4995791;27;45513;-63
2022/11/30 05:17:42;;;;;;;;;11.25;10.25;;;;;6.61;73.27;101844.38;4976540;28;45412;-62
2022/11/30 05:20:08;;;;;;;;;10.50;10.50;;;;;6.58;73.38;101847.75;4991341;27;45471;-62
2022/11/30 05:22:34;;;;;;;;;13.50;12.00;;;;;6.61;73.46;101854.78;4994709;27;46877;-61
2022/11/30 05:25:00;;;;;;;;;7.75;7.50;;;;;6.50;74.09;101856.09;4996226;27;45387;-62
2022/11/30 05:27:25;;;;;;;;;11.50;10.75;;;;;6.45;74.47;101861.13;4996176;27;45399;-62
2022/11/30 05:29:51;;;;;;;;;7.50;7.50;;;;;6.38;74.48;101861.75;4994655;27;45638;-62
2022/11/30 05:32:17;;;;;;;;;7.75;7.25;;;;;6.47;74.40;101866.41;4991737;27;46396;-63
2022/11/30 05:34:42;;;;;;;;;6.25;5.25;;;;;6.26;74.59;101836.16;4975952;27;45417;-66
2022/11/30 05:37:08;;;;;;;;;6.50;5.50;;;;;6.46;74.53;101862.03;4978166;28;45446;-67
2022/11/30 05:39:33;;;;;;;;;9.50;7.25;;;;;6.44;74.82;101864.56;4991597;27;45952;-62
2022/11/30 05:41:59;;;;;;;;;6.25;5.75;;;;;6.45;75.09;101849.84;4991183;27;45460;-63
2022/11/30 05:44:25;;;;;;;;;8.75;8.00;;;;;6.50;74.93;101861.31;4992729;27;45406;-65
2022/11/30 05:46:50;;;;;;;;;8.25;8.00;;;;;6.49;75.09;101843.94;4996046;27;45325;-65
2022/11/30 05:49:16;;;;;;;;;7.00;5.25;;;;;6.57;74.83;101848.59;4993548;27;45298;-63
2022/11/30 05:51:41;;;;;;;;;10.50;7.00;;;;;6.54;74.66;101848.47;4991451;27;45382;-64
2022/11/30 05:54:07;;;;;;;;;10.00;8.00;;;;;6.65;75.32;101850.59;4993455;27;45465;-66
2022/11/30 05:56:32;;;;;;;;;8.75;7.25;;;;;6.69;75.00;101845.53;4979388;27;45363;-63
2022/11/30 05:58:58;;;;;;;;;12.75;9.00;;;;;6.73;74.74;101841.31;4990866;27;45440;-64
2022/11/30 06:01:26;;;;;;;;;9.00;8.50;;;;;6.94;74.53;101846.41;4991237;27;45499;-66
2022/11/30 06:03:52;;;;;;;;;7.25;5.25;;;;;7.07;74.56;101842.47;4988953;27;45918;-63
2022/11/30 06:06:18;;;;;;;;;8.00;6.25;;;;;7.18;74.40;101849.81;4989262;27;45288;-67
2022/11/30 06:08:46;;;;;;;;;10.00;9.50;;;;;7.30;73.09;101858.91;4973383;28;45381;-65
2022/11/30 06:11:11;;;;;;;;;11.00;10.75;;;;;7.21;73.08;101849.94;4973424;27;46519;-65
2022/11/30 06:13:39;;;;;;;;;13.00;11.50;;;;;7.13;73.56;101848.78;4973183;28;45411;-63
2022/11/30 06:16:05;;;;;;;;;10.00;8.00;;;;;7.08;73.69;101844.25;4986541;27;45714;-63
2022/11/30 06:18:31;;;;;;;;;11.00;9.00;;;;;7.05;73.99;101837.22;4973388;27;45443;-62
2022/11/30 06:21:06;;;;;;;;;12.00;10.50;;;;;7.05;73.93;101837.22;4982839;27;46264;-62
2022/11/30 06:23:32;;;;;;;;;12.25;11.50;;;;;7.09;74.00;101846.03;4974117;27;45514;-63
2022/11/30 06:26:03;;;;;;;;;10.25;9.00;;;;;7.06;73.77;101849.41;4974252;28;45397;-63
2022/11/30 06:28:29;;;;;;;;;12.25;11.00;;;;;7.05;74.26;101831.13;4995363;27;45432;-63
2022/11/30 06:30:58;;;;;;;;;10.25;7.25;;;;;7.30;73.86;101851.06;4977250;28;47793;-62
2022/11/30 06:33:23;;;;;;;;;12.75;11.00;;;;;7.42;73.77;101856.69;4995300;27;45327;-62
2022/11/30 06:35:49;;;;;;;;;16.00;10.25;;;;;7.30;73.95;101846.75;4960792;28;45651;-63
2022/11/30 06:38:15;;;;;;;;;14.25;13.00;;;;;7.37;73.42;101847.84;4990488;27;45512;-62
2022/11/30 06:40:40;;;;;;;;;15.25;11.75;;;;;7.26;73.33;101823.13;4990859;27;45430;-63
2022/11/30 06:43:06;;;;;;;;;12.25;12.00;;;;;7.30;73.41;101838.03;4990869;27;45470;-63
2022/11/30 06:45:31;;;;;;;;;13.25;11.25;;;;;7.29;72.97;101841.50;4969076;28;45467;-61
2022/11/30 06:47:57;;;;;;;;;12.25;11.00;;;;;7.35;73.34;101858.19;4982922;27;45482;-62
2022/11/30 06:50:23;;;;;;;;;15.50;13.00;;;;;7.41;73.14;101862.75;4962868;27;46463;-62
2022/11/30 06:52:49;;;;;;;;;19.50;14.00;;;;;7.35;72.83;101854.72;4984582;27;45791;-62
2022/11/30 06:55:14;;;;;;;;;14.00;12.00;;;;;7.37;73.54;101863.47;4969570;28;45529;-64
2022/11/30 06:57:40;;;;;;;;;12.00;9.00;;;;;7.33;73.58;101856.38;4991209;27;45533;-63
2022/11/30 07:00:07;;;;;;;;;14.50;14.50;;;;;7.43;73.64;101859.34;4988903;27;46289;-64
2022/11/30 07:02:32;;;;;;;;;15.00;11.00;;;;;7.49;73.60;101852.56;4964636;27;45575;-63
2022/11/30 07:04:58;;;;;;;;;11.50;8.00;;;;;7.56;73.06;101850.19;4970647;27;45375;-63
2022/11/30 07:07:24;;;;;;;;;8.50;8.50;;;;;7.70;72.85;101861.06;4985037;28;45370;-63
2022/11/30 07:09:49;;;;;;;;;15.50;13.75;;;;;7.74;72.26;101862.06;4972148;28;45446;-62
2022/11/30 07:12:15;;;;;;;;;11.75;8.00;;;;;7.70;72.33;101855.84;4974809;27;45665;-62
2022/11/30 07:14:41;;;;;;;;;12.00;9.75;;;;;7.73;72.47;101873.31;4978037;27;45623;-62
2022/11/30 07:17:07;;;;;;;;;17.25;9.75;;;;;7.72;72.44;101871.56;4961803;28;45510;-62
2022/11/30 07:19:33;;;;;;;;;15.75;14.25;;;;;7.78;72.06;101869.13;4984414;27;46005;-62
2022/11/30 07:21:59;;;;;;;;;14.75;13.50;;;;;7.80;71.63;101876.16;4983491;27;45484;-63
2022/11/30 07:27:08;;;;;;;;;19.25;17.00;;;;;7.83;71.73;101877.97;4990431;27;45350;-62
2022/11/30 07:29:34;;;;;;;;;22.50;15.75;;;;;7.69;71.45;101858.41;4975815;27;45477;-63
2022/11/30 07:32:00;;;;;;;;;15.25;15.00;;;;;7.65;72.03;101873.97;4971935;27;45455;-63
2022/11/30 07:34:25;;;;;;;;;16.00;13.50;;;;;7.72;72.41;101880.25;4973761;27;45452;-62
2022/11/30 07:36:51;;;;;;;;;17.75;16.25;;;;;7.72;71.93;101868.97;4978063;27;45714;-63
2022/11/30 07:39:16;;;;;;;;;18.50;13.75;;;;;7.80;71.74;101894.41;4973208;27;45771;-66
2022/11/30 07:41:42;;;;;;;;;26.25;18.50;;;;;7.75;71.96;101893.41;4978518;27;45686;-64
2022/11/30 07:44:08;;;;;;;;;24.00;20.75;;;;;7.72;71.73;101901.13;4973165;28;45700;-64
2022/11/30 07:46:36;;;;;;;;;15.50;14.50;;;;;7.64;72.42;101892.19;4973256;27;45402;-63
2022/11/30 07:49:03;;;;;;;;;18.00;15.25;;;;;7.73;72.12;101912.44;4981379;27;46169;-62
2022/11/30 07:51:29;;;;;;;;;17.50;15.25;;;;;7.73;72.30;101897.66;4973655;27;45566;-65
2022/11/30 07:53:55;;;;;;;;;26.50;20.50;;;;;7.79;71.76;101897.88;4975990;27;45374;-63
2022/11/30 07:56:22;;;;;;;;;21.00;16.25;;;;;7.77;71.20;101904.75;4990791;27;45438;-66
2022/11/30 07:58:50;;;;;;;;;27.00;16.75;;;;;7.71;71.19;101908.88;4980463;27;47241;-63
2022/11/30 08:01:20;;;;;;;;;17.00;14.25;;;;;7.72;71.48;101908.94;4979661;27;45526;-63
2022/11/30 08:03:46;;;;;;;;;18.25;14.50;;;;;7.72;70.85;101913.28;4968186;28;45447;-66
2022/11/30 08:06:15;;;;;;;;;22.00;17.50;;;;;7.61;71.27;101902.50;4973178;27;46035;-66
2022/11/30 08:08:43;;;;;;;;;21.00;18.25;;;;;7.56;71.78;101915.38;4974105;27;46058;-62
2022/11/30 08:11:11;;;;;;;;;23.00;16.25;;;;;7.42;71.97;101903.59;4987184;27;45441;-67
2022/11/30 08:13:36;;;;;;;;;22.25;19.75;;;;;7.37;72.47;101915.59;4975010;27;45646;-62
2022/11/30 08:16:13;;;;;;;;;22.25;16.50;;;;;7.40;72.93;101918.31;4984766;27;45493;-65
2022/11/30 08:18:40;;;;;;;;;16.25;14.50;;;;;7.38;73.15;101920.88;4955950;28;45803;-62
2022/11/30 08:21:07;;;;;;;;;18.75;13.25;;;;;7.36;72.77;101904.28;4961937;27;45499;-63
2022/11/30 08:23:41;;;;;;;;;19.25;14.25;;;;;7.55;72.67;101924.03;5007148;28;45624;-63
2022/11/30 08:26:14;;;;;;;;;18.25;15.50;;;;;7.62;72.66;101930.34;4972799;27;45598;-63
2022/11/30 08:28:41;;;;;;;;;21.00;14.25;;;;;7.67;72.47;101926.19;4955202;28;45668;-63
2022/11/30 08:31:14;;;;;;;;;31.75;19.75;;;;;7.67;72.58;101927.91;4975659;27;45418;-66
2022/11/30 08:33:41;;;;;;;;;22.25;14.50;;;;;7.68;72.74;101924.44;4974260;27;45634;-62
2022/11/30 08:36:11;;;;;;;;;19.00;15.25;;;;;7.80;72.26;101930.94;4973317;28;45442;-63
2022/11/30 08:38:39;;;;;;;;;24.00;15.00;;;;;7.84;72.36;101924.13;4957976;27;46784;-64
2022/11/30 08:41:12;;;;;;;;;20.25;15.75;;;;;7.89;72.47;101925.13;4975189;27;45445;-65
2022/11/30 08:43:39;;;;;;;;;21.50;14.75;;;;;8.03;71.87;101926.47;4972891;27;45693;-67
2022/11/30 08:46:10;;;;;;;;;17.50;17.25;;;;;8.12;71.73;101927.59;4978989;27;45595;-64
2022/11/30 08:48:35;;;;;;;;;18.50;13.75;;;;;8.18;70.91;101938.22;4954082;27;47726;-67
2022/11/30 08:51:04;;;;;;;;;25.50;22.00;;;;;8.18;70.82;101930.38;4961125;28;45457;-63
2022/11/30 08:53:30;;;;;;;;;29.50;22.50;;;;;8.14;70.91;101929.41;4982408;28;45401;-62
2022/11/30 08:55:57;;;;;;;;;22.25;16.75;;;;;8.12;71.16;101917.16;4973988;27;45495;-63
2022/11/30 08:58:23;;;;;;;;;20.00;15.00;;;;;8.21;71.25;101930.47;4971789;27;45696;-63
2022/11/30 09:00:48;;;;;;;;;16.25;16.25;;;;;8.20;70.96;101921.75;4974375;27;45451;-62
2022/11/30 09:03:14;;;;;;;;;27.00;20.00;;;;;8.27;70.82;101928.06;4971717;27;45411;-63
2022/11/30 09:05:40;;;;;;;;;19.50;17.75;;;;;8.38;70.71;101931.00;4972336;28;45734;-67
2022/11/30 09:08:05;;;;;;;;;24.75;17.00;;;;;8.44;70.74;101936.44;4972301;27;45768;-62
2022/11/30 09:10:31;;;;;;;;;23.00;19.00;;;;;8.45;70.22;101936.50;4976598;27;45532;-64
2022/11/30 09:12:57;;;;;;;;;22.00;15.25;;;;;8.57;69.83;101940.31;4988113;27;45628;-64
2022/11/30 09:15:23;;;;;;;;;24.00;19.00;;;;;8.58;69.60;101935.13;4991243;27;45910;-63
2022/11/30 09:17:49;;;;;;;;;26.75;21.25;;;;;8.51;69.51;101932.28;4988431;27;45685;-64
2022/11/30 09:20:15;;;;;;;;;21.00;19.25;;;;;8.60;69.78;101945.63;4980251;27;46064;-65
2022/11/30 09:22:40;;;;;;;;;25.25;19.50;;;;;8.63;69.36;101949.19;4979384;27;45536;-66
2022/11/30 09:25:06;;;;;;;;;28.25;20.75;;;;;8.35;68.60;101905.69;4972034;27;45675;-66
2022/11/30 09:27:32;;;;;;;;;24.50;21.00;;;;;8.51;69.38;101953.19;4982466;27;46421;-64
2022/11/30 09:29:59;;;;;;;;;27.25;22.50;;;;;8.51;69.09;101955.78;4989193;27;45579;-63
2022/11/30 09:32:24;;;;;;;;;36.75;21.00;;;;;8.47;68.97;101960.00;4967490;27;45365;-68
2022/11/30 09:34:50;;;;;;;;;21.00;18.00;;;;;8.42;69.38;101959.91;4986569;27;45504;-65
2022/11/30 09:37:15;;;;;;;;;33.75;22.00;;;;;8.38;69.44;101959.72;4977777;27;45431;-66
2022/11/30 09:39:41;;;;;;;;;22.75;19.25;;;;;8.39;69.40;101958.88;4973602;27;45673;-66
2022/11/30 09:42:07;;;;;;;;;26.00;24.00;;;;;8.46;69.47;101964.34;4984998;27;45730;-64
2022/11/30 09:44:50;;;;;;;;;31.00;27.25;;;;;8.48;69.61;101956.59;4983111;28;45548;-64
2022/11/30 09:47:37;;;;;;;;;21.25;19.00;;;;;8.54;69.49;101963.69;4973531;27;46178;-65
2022/11/30 09:50:19;;;;;;;;;21.50;18.75;;;;;8.57;69.18;101961.22;4971546;27;45888;-62
2022/11/30 09:53:13;;;;;;;;;24.00;19.25;;;;;8.59;69.08;101956.88;4971444;27;45590;-63
2022/11/30 09:55:42;;;;;;;;;23.75;19.50;;;;;8.67;69.09;101952.78;4970173;27;45752;-62
2022/11/30 09:58:45;;;;;;;;;25.50;20.25;;;;;8.68;69.15;101952.84;4976799;27;46333;-62
2022/11/30 10:01:17;;;;;;;;;34.00;26.50;;;;;8.72;68.27;101952.94;4985778;27;45508;-63
2022/11/30 10:03:43;;;;;;;;;28.25;20.50;;;;;8.77;68.15;101962.66;4978106;28;45421;-63
2022/11/30 10:06:24;;;;;;;;;32.50;25.00;;;;;8.78;68.01;101943.53;4975832;27;45425;-64
2022/11/30 10:08:58;;;;;;;;;35.00;26.75;;;;;8.80;67.72;101954.03;4971085;27;46403;-64
2022/11/30 10:11:40;;;;;;;;;42.00;32.25;;;;;8.77;67.72;101956.56;4975383;27;45768;-63
2022/11/30 10:14:16;;;;;;;;;30.25;26.25;;;;;8.66;68.00;101959.75;4980087;27;45463;-63
2022/11/30 10:17:11;;;;;;;;;34.50;25.25;;;;;8.62;68.60;101946.56;4975679;27;45454;-64
2022/11/30 10:20:07;;;;;;;;;35.00;28.75;;;;;8.64;68.48;101940.53;4970913;27;46251;-64
2022/11/30 10:23:01;;;;;;;;;37.50;27.50;;;;;8.66;68.78;101940.56;4971040;27;45887;-64
2022/11/30 10:25:55;;;;;;;;;34.00;30.75;;;;;8.73;68.57;101946.84;4958852;27;45548;-63
2022/11/30 10:28:45;;;;;;;;;25.25;22.25;;;;;8.73;68.74;101934.66;4975171;27;45580;-63
2022/11/30 10:31:13;;;;;;;;;35.75;31.25;;;;;8.91;68.07;101940.41;4972447;27;45777;-64
2022/11/30 10:33:46;;;;;;;;;35.50;28.00;;;;;8.91;67.58;101943.03;4973603;27;45407;-64
2022/11/30 10:36:21;;;;;;;;;31.00;25.50;;;;;9.01;67.71;101946.78;4978373;27;45448;-62
2022/11/30 10:38:55;;;;;;;;;33.25;26.50;;;;;9.19;67.50;101941.19;4976086;27;45527;-63
2022/11/30 10:41:42;;;;;;;;;18.75;18.50;;;;;9.28;67.27;101930.97;4978118;27;46661;-63
2022/11/30 10:44:19;;;;;;;;;26.00;23.75;;;;;9.30;66.81;101939.75;4970649;27;45464;-62
2022/11/30 10:47:04;;;;;;;;;27.25;22.00;;;;;9.28;66.90;101917.91;5000297;28;45439;-65
2022/11/30 10:49:32;;;;;;;;;22.25;18.75;;;;;9.71;66.25;101925.97;4970753;27;45488;-63
2022/11/30 10:52:03;;;;;;;;;22.25;21.00;;;;;9.78;65.85;101920.03;4952707;28;47998;-63
2022/11/30 10:54:30;;;;;;;;;30.00;24.50;;;;;10.03;65.16;101924.09;4972585;27;45532;-62
2022/11/30 10:57:01;;;;;;;;;28.50;21.75;;;;;10.47;63.75;101910.28;4990289;27;45398;-63
2022/11/30 10:59:42;;;;;;;;;33.25;25.75;;;;;11.64;60.89;101908.09;4992486;27;45566;-63
2022/11/30 11:02:46;;;;;;;;;32.00;24.25;;;;;12.13;57.52;101906.25;4985446;28;47328;-62
2022/11/30 11:05:20;;;;;;;;;34.00;25.00;;;;;11.63;58.55;101909.84;4983276;28;45598;-61
2022/11/30 11:07:51;;;;;;;;;24.75;22.50;;;;;11.57;59.42;101911.47;4990500;27;45374;-64
2022/11/30 11:10:27;;;;;;;;;26.50;19.50;;;;;12.29;58.96;101916.13;4990507;27;45507;-63
2022/11/30 11:12:54;;;;;;;;;27.00;21.25;;;;;12.59;57.92;101901.59;4989855;27;46671;-64
2022/11/30 11:15:29;;;;;;;;;31.00;22.50;;;;;12.37;57.69;101912.72;4990587;27;45536;-63
2022/11/30 11:18:22;;;;;;;;;36.75;24.75;;;;;11.99;57.43;101899.91;4991895;27;45477;-64
2022/11/30 11:20:58;;;;;;;;;37.50;26.25;;;;;11.69;58.47;101895.91;4990445;27;45550;-64
2022/11/30 11:23:35;;;;;;;;;32.50;25.25;;;;;11.63;58.74;101901.09;4974917;27;46837;-62
2022/11/30 11:26:01;;;;;;;;;35.25;30.00;;;;;11.64;59.09;101905.47;4990029;28;45392;-65
2022/11/30 11:28:28;;;;;;;;;34.25;26.75;;;;;11.46;59.69;101898.19;4989911;27;45643;-64
2022/11/30 11:30:55;;;;;;;;;27.00;20.75;;;;;11.27;60.53;101899.59;4990312;27;45599;-63